sensor_id;sensor_type;location;lat;lon;timestamp;pressure;altitude;pressure_sealevel;temperature;humidity
17362;BME280;8798;51.938;4.348;2023-05-01T00:02:25;101256.97;;;15.10;54.90
17362;BME280;8798;51.938;4.348;2023-05-01T00:04:53;101250.22;;;15.05;55.23
17362;BME280;8798;51.938;4.348;2023-05-01T00:07:22;101262.56;;;15.08;55.33
17362;BME280;8798;51.938;4.348;2023-05-01T00:09:50;101279.47;;;15.10;55.31
17362;BME280;8798;51.938;4.348;2023-05-01T00:12:18;101296.38;;;15.12;55.43
17362;BME280;8798;51.938;4.348;2023-05-01T00:14:46;101298.41;;;15.10;55.42
17362;BME280;8798;51.938;4.348;2023-05-01T00:17:14;101295.91;;;15.09;55.53
17362;BME280;8798;51.938;4.348;2023-05-01T00:19:42;101291.81;;;15.04;55.67
17362;BME280;8798;51.938;4.348;2023-05-01T00:22:10;101290.31;;;15.02;55.67
17362;BME280;8798;51.938;4.348;2023-05-01T00:24:39;101298.25;;;15.03;55.68
17362;BME280;8798;51.938;4.348;2023-05-01T00:27:07;101311.59;;;15.05;55.79
17362;BME280;8798;51.938;4.348;2023-05-01T00:29:35;101329.56;;;15.06;55.90
17362;BME280;8798;51.938;4.348;2023-05-01T00:32:03;101318.03;;;15.04;56.00
17362;BME280;8798;51.938;4.348;2023-05-01T00:34:31;101316.53;;;15.01;56.17
17362;BME280;8798;51.938;4.348;2023-05-01T00:36:59;101329.88;;;15.03;56.12
17362;BME280;8798;51.938;4.348;2023-05-01T00:39:26;101334.44;;;15.02;56.13
17362;BME280;8798;51.938;4.348;2023-05-01T00:41:55;101326.81;;;14.98;56.24
17362;BME280;8798;51.938;4.348;2023-05-01T00:44:23;101299.63;;;14.91;56.34
17362;BME280;8798;51.938;4.348;2023-05-01T00:46:52;101299.94;;;14.88;56.54
17362;BME280;8798;51.938;4.348;2023-05-01T00:49:21;101292.31;;;14.83;56.40
17362;BME280;8798;51.938;4.348;2023-05-01T00:51:50;101248.72;;;14.70;56.66
17362;BME280;8798;51.938;4.348;2023-05-01T00:54:20;101232.31;;;14.63;56.55
17362;BME280;8798;51.938;4.348;2023-05-01T00:56:48;101232.31;;;14.63;56.52
17362;BME280;8798;51.938;4.348;2023-05-01T00:59:19;101241.94;;;14.66;56.81
17362;BME280;8798;51.938;4.348;2023-05-01T01:01:46;101248.53;;;14.63;56.94
17362;BME280;8798;51.938;4.348;2023-05-01T01:04:14;101244.31;;;14.61;57.06
17362;BME280;8798;51.938;4.348;2023-05-01T01:06:50;101260.38;;;14.62;56.80
17362;BME280;8798;51.938;4.348;2023-05-01T01:09:29;101263.94;;;14.63;57.08
17362;BME280;8798;51.938;4.348;2023-05-01T01:12:08;101263.25;;;14.61;57.15
17362;BME280;8798;51.938;4.348;2023-05-01T01:14:41;101279.47;;;14.61;57.25
17362;BME280;8798;51.938;4.348;2023-05-01T01:17:16;101281.31;;;14.60;57.29
17362;BME280;8798;51.938;4.348;2023-05-01T01:20:23;101294.69;;;14.62;57.42
17362;BME280;8798;51.938;4.348;2023-05-01T01:23:00;101289.63;;;14.59;57.38
17362;BME280;8798;51.938;4.348;2023-05-01T01:26:02;101295.03;;;14.59;57.46
17362;BME280;8798;51.938;4.348;2023-05-01T01:29:02;101299.75;;;14.57;57.58
17362;BME280;8798;51.938;4.348;2023-05-01T01:31:33;101295.53;;;14.54;57.67
17362;BME280;8798;51.938;4.348;2023-05-01T01:34:12;101294.81;;;14.52;57.40
17362;BME280;8798;51.938;4.348;2023-05-01T01:36:46;101299.22;;;14.53;57.61
17362;BME280;8798;51.938;4.348;2023-05-01T01:39:26;101304.63;;;14.53;57.75
17362;BME280;8798;51.938;4.348;2023-05-01T01:41:57;101303.91;;;14.51;57.59
17362;BME280;8798;51.938;4.348;2023-05-01T01:44:31;101310.34;;;14.50;57.98
17362;BME280;8798;51.938;4.348;2023-05-01T01:47:01;101305.97;;;14.49;58.12
17362;BME280;8798;51.938;4.348;2023-05-01T01:49:33;101307.81;;;14.49;58.04
17362;BME280;8798;51.938;4.348;2023-05-01T01:52:05;101315.91;;;14.49;57.97
17362;BME280;8798;51.938;4.348;2023-05-01T01:54:37;101324.91;;;14.49;58.23
17362;BME280;8798;51.938;4.348;2023-05-01T01:57:07;101325.88;;;14.48;58.09
17362;BME280;8798;51.938;4.348;2023-05-01T01:59:39;101327.06;;;14.46;58.45
17362;BME280;8798;51.938;4.348;2023-05-01T02:02:08;101306.81;;;14.41;58.34
17362;BME280;8798;51.938;4.348;2023-05-01T02:04:39;101281.44;;;14.34;58.06
17362;BME280;8798;51.938;4.348;2023-05-01T02:07:10;101266.72;;;14.29;58.34
17362;BME280;8798;51.938;4.348;2023-05-01T02:09:39;101266.22;;;14.25;58.49
17362;BME280;8798;51.938;4.348;2023-05-01T02:12:08;101261.81;;;14.24;58.42
17362;BME280;8798;51.938;4.348;2023-05-01T02:14:38;101270.09;;;14.23;58.79
17362;BME280;8798;51.938;4.348;2023-05-01T02:17:08;101280.91;;;14.23;58.52
17362;BME280;8798;51.938;4.348;2023-05-01T02:19:38;101281.59;;;14.25;58.90
17362;BME280;8798;51.938;4.348;2023-05-01T02:22:08;101288.66;;;14.26;58.92
17362;BME280;8798;51.938;4.348;2023-05-01T02:24:37;101289.00;;;14.23;58.75
17362;BME280;8798;51.938;4.348;2023-05-01T02:27:10;101278.53;;;14.19;59.00
17362;BME280;8798;51.938;4.348;2023-05-01T02:29:39;101269.06;;;14.15;58.77
17362;BME280;8798;51.938;4.348;2023-05-01T02:32:07;101252.50;;;14.10;58.83
17362;BME280;8798;51.938;4.348;2023-05-01T02:34:34;101236.94;;;14.04;58.95
17362;BME280;8798;51.938;4.348;2023-05-01T02:37:05;101228.31;;;14.01;58.99
17362;BME280;8798;51.938;4.348;2023-05-01T02:39:34;101221.41;;;13.98;59.08
17362;BME280;8798;51.938;4.348;2023-05-01T02:42:02;101203.31;;;13.90;59.32
17362;BME280;8798;51.938;4.348;2023-05-01T02:44:37;101191.16;;;13.86;59.46
17362;BME280;8798;51.938;4.348;2023-05-01T02:47:06;101195.72;;;13.86;59.39
17362;BME280;8798;51.938;4.348;2023-05-01T02:49:35;101201.09;;;13.86;59.70
17362;BME280;8798;51.938;4.348;2023-05-01T02:52:06;101201.09;;;13.86;59.55
17362;BME280;8798;51.938;4.348;2023-05-01T02:54:34;101219.84;;;13.87;59.59
17362;BME280;8798;51.938;4.348;2023-05-01T02:57:03;101234.19;;;13.88;59.58
17362;BME280;8798;51.938;4.348;2023-05-01T02:59:31;101230.66;;;13.87;59.49
17362;BME280;8798;51.938;4.348;2023-05-01T03:01:59;101245.84;;;13.88;59.95
17362;BME280;8798;51.938;4.348;2023-05-01T03:04:27;101263.44;;;13.92;59.71
17362;BME280;8798;51.938;4.348;2023-05-01T03:06:55;101275.75;;;13.95;59.93
17362;BME280;8798;51.938;4.348;2023-05-01T03:09:24;101296.88;;;14.00;60.22
17362;BME280;8798;51.938;4.348;2023-05-01T03:11:52;101323.38;;;14.04;59.99
17362;BME280;8798;51.938;4.348;2023-05-01T03:14:19;101350.09;;;14.07;60.09
17362;BME280;8798;51.938;4.348;2023-05-01T03:16:47;101343.66;;;14.08;60.27
17362;BME280;8798;51.938;4.348;2023-05-01T03:19:15;101357.19;;;14.08;59.98
17362;BME280;8798;51.938;4.348;2023-05-01T03:21:43;101351.78;;;14.08;60.34
17362;BME280;8798;51.938;4.348;2023-05-01T03:24:11;101355.50;;;14.07;60.26
17362;BME280;8798;51.938;4.348;2023-05-01T03:26:40;101372.38;;;14.09;60.05
17362;BME280;8798;51.938;4.348;2023-05-01T03:29:08;101383.03;;;14.11;60.34
17362;BME280;8798;51.938;4.348;2023-05-01T03:31:38;101390.97;;;14.12;60.25
17362;BME280;8798;51.938;4.348;2023-05-01T03:34:06;101400.63;;;14.15;60.51
17362;BME280;8798;51.938;4.348;2023-05-01T03:36:35;101407.69;;;14.16;60.18
17362;BME280;8798;51.938;4.348;2023-05-01T03:39:02;101414.63;;;14.18;60.31
17362;BME280;8798;51.938;4.348;2023-05-01T03:41:31;101436.78;;;14.22;60.46
17362;BME280;8798;51.938;4.348;2023-05-01T03:44:00;101452.69;;;14.25;60.53
17362;BME280;8798;51.938;4.348;2023-05-01T03:46:28;101438.63;;;14.22;60.47
17362;BME280;8798;51.938;4.348;2023-05-01T03:48:56;101439.50;;;14.22;60.56
17362;BME280;8798;51.938;4.348;2023-05-01T03:51:25;101436.94;;;14.20;60.52
17362;BME280;8798;51.938;4.348;2023-05-01T03:53:53;101428.16;;;14.18;60.43
17362;BME280;8798;51.938;4.348;2023-05-01T03:56:22;101422.06;;;14.16;60.47
17362;BME280;8798;51.938;4.348;2023-05-01T03:58:51;101401.78;;;14.12;60.73
17362;BME280;8798;51.938;4.348;2023-05-01T04:01:20;101395.00;;;14.08;60.40
17362;BME280;8798;51.938;4.348;2023-05-01T04:03:48;101386.19;;;14.06;60.73
17362;BME280;8798;51.938;4.348;2023-05-01T04:06:16;101380.09;;;14.04;60.90
17362;BME280;8798;51.938;4.348;2023-05-01T04:08:44;101395.16;;;14.07;60.71
17362;BME280;8798;51.938;4.348;2023-05-01T04:11:11;101390.75;;;14.06;60.57
17362;BME280;8798;51.938;4.348;2023-05-01T04:13:39;101375.03;;;14.01;60.90
17362;BME280;8798;51.938;4.348;2023-05-01T04:16:07;101368.94;;;13.99;61.06
17362;BME280;8798;51.938;4.348;2023-05-01T04:18:36;101374.34;;;13.99;60.78
17362;BME280;8798;51.938;4.348;2023-05-01T04:21:04;101379.94;;;13.97;61.18
17362;BME280;8798;51.938;4.348;2023-05-01T04:23:32;101377.22;;;13.97;60.94
17362;BME280;8798;51.938;4.348;2023-05-01T04:26:00;101378.06;;;13.98;61.23
17362;BME280;8798;51.938;4.348;2023-05-01T04:28:27;101368.44;;;13.95;61.42
17362;BME280;8798;51.938;4.348;2023-05-01T04:30:56;101364.19;;;13.93;61.10
17362;BME280;8798;51.938;4.348;2023-05-01T04:33:24;101368.75;;;13.92;61.30
17362;BME280;8798;51.938;4.348;2023-05-01T04:35:55;101368.75;;;13.92;61.25
17362;BME280;8798;51.938;4.348;2023-05-01T04:38:22;101361.66;;;13.91;61.17
17362;BME280;8798;51.938;4.348;2023-05-01T04:40:50;101353.03;;;13.88;61.59
17362;BME280;8798;51.938;4.348;2023-05-01T04:43:18;101348.81;;;13.85;61.56
17362;BME280;8798;51.938;4.348;2023-05-01T04:45:47;101346.25;;;13.84;61.44
17362;BME280;8798;51.938;4.348;2023-05-01T04:48:14;101338.28;;;13.82;61.57
17362;BME280;8798;51.938;4.348;2023-05-01T04:50:42;101333.91;;;13.81;61.69
17362;BME280;8798;51.938;4.348;2023-05-01T04:53:11;101346.41;;;13.82;61.83
17362;BME280;8798;51.938;4.348;2023-05-01T04:55:39;101348.94;;;13.84;61.81
17362;BME280;8798;51.938;4.348;2023-05-01T04:58:07;101369.38;;;13.86;61.45
17362;BME280;8798;51.938;4.348;2023-05-01T05:00:35;101382.56;;;13.89;61.50
17362;BME280;8798;51.938;4.348;2023-05-01T05:03:03;101386.97;;;13.90;61.87
17362;BME280;8798;51.938;4.348;2023-05-01T05:05:32;101411.09;;;13.92;61.92
17362;BME280;8798;51.938;4.348;2023-05-01T05:08:00;101413.50;;;13.95;61.64
17362;BME280;8798;51.938;4.348;2023-05-01T05:10:30;101430.38;;;13.97;61.61
17362;BME280;8798;51.938;4.348;2023-05-01T05:12:58;101441.72;;;14.01;61.89
17362;BME280;8798;51.938;4.348;2023-05-01T05:15:25;101452.06;;;14.05;61.83
17362;BME280;8798;51.938;4.348;2023-05-01T05:17:53;101481.44;;;14.08;62.14
17362;BME280;8798;51.938;4.348;2023-05-01T05:20:22;101493.66;;;14.12;62.09
17362;BME280;8798;51.938;4.348;2023-05-01T05:22:50;101519.19;;;14.18;62.11
17362;BME280;8798;51.938;4.348;2023-05-01T05:25:18;101528.81;;;14.20;61.85
17362;BME280;8798;51.938;4.348;2023-05-01T05:27:47;101534.91;;;14.23;62.08
17362;BME280;8798;51.938;4.348;2023-05-01T05:30:15;101550.66;;;14.27;62.16
17362;BME280;8798;51.938;4.348;2023-05-01T05:32:43;101570.94;;;14.31;62.04
17362;BME280;8798;51.938;4.348;2023-05-01T05:35:12;101572.66;;;14.32;62.02
17362;BME280;8798;51.938;4.348;2023-05-01T05:37:40;101588.41;;;14.37;62.30
17362;BME280;8798;51.938;4.348;2023-05-01T05:40:11;101607.84;;;14.40;62.20
17362;BME280;8798;51.938;4.348;2023-05-01T05:42:39;101625.44;;;14.45;62.13
17362;BME280;8798;51.938;4.348;2023-05-01T05:45:09;101648.44;;;14.49;61.70
17362;BME280;8798;51.938;4.348;2023-05-01T05:47:38;101654.25;;;14.54;62.19
17362;BME280;8798;51.938;4.348;2023-05-01T05:50:07;101671.88;;;14.58;62.18
17362;BME280;8798;51.938;4.348;2023-05-01T05:52:35;101671.56;;;14.61;62.08
17362;BME280;8798;51.938;4.348;2023-05-01T05:55:03;101693.75;;;14.65;62.34
17362;BME280;8798;51.938;4.348;2023-05-01T05:57:31;101713.03;;;14.70;62.04
17362;BME280;8798;51.938;4.348;2023-05-01T06:00:02;101734.91;;;14.76;62.25
17362;BME280;8798;51.938;4.348;2023-05-01T06:02:36;101755.06;;;14.82;62.18
17362;BME280;8798;51.938;4.348;2023-05-01T06:05:04;101767.09;;;14.88;62.04
17362;BME280;8798;51.938;4.348;2023-05-01T06:07:32;101774.91;;;14.91;62.22
17362;BME280;8798;51.938;4.348;2023-05-01T06:10:00;101795.09;;;14.96;62.22
17362;BME280;8798;51.938;4.348;2023-05-01T06:12:30;101802.19;;;14.97;61.98
17362;BME280;8798;51.938;4.348;2023-05-01T06:15:02;101805.59;;;14.99;62.26
17362;BME280;8798;51.938;4.348;2023-05-01T06:17:30;101805.59;;;14.99;62.19
17362;BME280;8798;51.938;4.348;2023-05-01T06:20:01;101796.44;;;15.00;62.15
17362;BME280;8798;51.938;4.348;2023-05-01T06:22:31;101782.41;;;14.97;62.09
17362;BME280;8798;51.938;4.348;2023-05-01T06:24:59;101776.16;;;14.96;62.10
17362;BME280;8798;51.938;4.348;2023-05-01T06:27:27;101757.50;;;14.93;62.41
17362;BME280;8798;51.938;4.348;2023-05-01T06:29:54;101733.66;;;14.89;62.03
17362;BME280;8798;51.938;4.348;2023-05-01T06:32:23;101725.69;;;14.87;62.25
17362;BME280;8798;51.938;4.348;2023-05-01T06:34:50;101726.53;;;14.88;61.91
17362;BME280;8798;51.938;4.348;2023-05-01T06:37:20;101728.25;;;14.89;62.08
17362;BME280;8798;51.938;4.348;2023-05-01T06:39:48;101724.50;;;14.90;62.12
17362;BME280;8798;51.938;4.348;2023-05-01T06:42:15;101724.50;;;14.90;62.09
17362;BME280;8798;51.938;4.348;2023-05-01T06:44:43;101726.19;;;14.91;62.01
17362;BME280;8798;51.938;4.348;2023-05-01T06:47:11;101734.88;;;14.94;62.01
17362;BME280;8798;51.938;4.348;2023-05-01T06:49:39;101737.56;;;14.94;62.04
17362;BME280;8798;51.938;4.348;2023-05-01T06:52:08;101739.09;;;14.97;62.08
17362;BME280;8798;51.938;4.348;2023-05-01T06:54:38;101756.56;;;15.02;62.16
17362;BME280;8798;51.938;4.348;2023-05-01T06:57:06;101779.59;;;15.07;62.16
17362;BME280;8798;51.938;4.348;2023-05-01T06:59:34;101804.00;;;15.15;62.06
17362;BME280;8798;51.938;4.348;2023-05-01T07:02:02;101825.91;;;15.21;62.05
17362;BME280;8798;51.938;4.348;2023-05-01T07:04:30;101849.59;;;15.27;62.02
17362;BME280;8798;51.938;4.348;2023-05-01T07:06:58;101848.44;;;15.30;61.99
17362;BME280;8798;51.938;4.348;2023-05-01T07:09:26;101854.41;;;15.34;62.11
17362;BME280;8798;51.938;4.348;2023-05-01T07:11:55;101870.19;;;15.38;61.93
17362;BME280;8798;51.938;4.348;2023-05-01T07:14:24;101894.94;;;15.43;62.00
17362;BME280;8798;51.938;4.348;2023-05-01T07:16:52;101915.94;;;15.49;62.01
17362;BME280;8798;51.938;4.348;2023-05-01T07:19:21;101926.47;;;15.53;62.00
17362;BME280;8798;51.938;4.348;2023-05-01T07:21:48;101926.16;;;15.56;62.13
17362;BME280;8798;51.938;4.348;2023-05-01T07:24:16;101955.00;;;15.65;62.05
17362;BME280;8798;51.938;4.348;2023-05-01T07:26:44;101990.16;;;15.75;62.15
17362;BME280;8798;51.938;4.348;2023-05-01T07:29:14;102028.84;;;15.85;62.08
17362;BME280;8798;51.938;4.348;2023-05-01T07:31:42;102064.84;;;15.95;61.85
17362;BME280;8798;51.938;4.348;2023-05-01T07:34:10;102081.50;;;16.00;61.82
17362;BME280;8798;51.938;4.348;2023-05-01T07:36:38;102086.47;;;16.05;61.84
17362;BME280;8798;51.938;4.348;2023-05-01T07:39:06;102094.09;;;16.09;61.94
17362;BME280;8798;51.938;4.348;2023-05-01T07:41:34;102105.16;;;16.16;62.00
17362;BME280;8798;51.938;4.348;2023-05-01T07:44:02;102119.94;;;16.22;61.87
17362;BME280;8798;51.938;4.348;2023-05-01T07:46:33;102134.06;;;16.25;61.75
17362;BME280;8798;51.938;4.348;2023-05-01T07:49:01;102130.31;;;16.26;61.82
17362;BME280;8798;51.938;4.348;2023-05-01T07:51:29;102135.28;;;16.31;61.76
17362;BME280;8798;51.938;4.348;2023-05-01T07:53:57;102138.53;;;16.34;61.53
17362;BME280;8798;51.938;4.348;2023-05-01T07:56:29;102123.25;;;16.33;61.39
17362;BME280;8798;51.938;4.348;2023-05-01T07:58:57;102102.72;;;16.31;61.48
17362;BME280;8798;51.938;4.348;2023-05-01T08:01:25;102092.03;;;16.29;60.94
17362;BME280;8798;51.938;4.348;2023-05-01T08:03:54;102083.91;;;16.29;61.60
17362;BME280;8798;51.938;4.348;2023-05-01T08:06:22;102080.19;;;16.30;61.53
17362;BME280;8798;51.938;4.348;2023-05-01T08:08:50;102052.72;;;16.25;61.35
17362;BME280;8798;51.938;4.348;2023-05-01T08:11:18;101966.00;;;16.07;61.08
17362;BME280;8798;51.938;4.348;2023-05-01T08:13:46;101920.03;;;15.98;61.30
17362;BME280;8798;51.938;4.348;2023-05-01T08:16:13;101880.34;;;15.88;61.10
17362;BME280;8798;51.938;4.348;2023-05-01T08:18:41;101836.09;;;15.80;61.20
17362;BME280;8798;51.938;4.348;2023-05-01T08:21:11;101800.00;;;15.71;61.22
17362;BME280;8798;51.938;4.348;2023-05-01T08:23:39;101769.94;;;15.64;61.32
17362;BME280;8798;51.938;4.348;2023-05-01T08:26:06;101744.38;;;15.59;61.17
17362;BME280;8798;51.938;4.348;2023-05-01T08:28:34;101734.53;;;15.58;61.10
17362;BME280;8798;51.938;4.348;2023-05-01T08:31:03;101725.75;;;15.56;61.17
17362;BME280;8798;51.938;4.348;2023-05-01T08:33:30;101701.16;;;15.49;61.28
17362;BME280;8798;51.938;4.348;2023-05-01T08:35:59;101697.44;;;15.50;61.13
17362;BME280;8798;51.938;4.348;2023-05-01T08:38:28;101692.34;;;15.47;61.16
17362;BME280;8798;51.938;4.348;2023-05-01T08:40:56;101688.78;;;15.46;61.30
17362;BME280;8798;51.938;4.348;2023-05-01T08:43:28;101639.34;;;15.36;61.33
17362;BME280;8798;51.938;4.348;2023-05-01T08:45:57;101616.63;;;15.29;61.46
17362;BME280;8798;51.938;4.348;2023-05-01T08:48:27;101593.59;;;15.25;61.55
17362;BME280;8798;51.938;4.348;2023-05-01T08:50:56;101591.94;;;15.24;61.52
17362;BME280;8798;51.938;4.348;2023-05-01T08:53:25;101600.75;;;15.26;61.53
17362;BME280;8798;51.938;4.348;2023-05-01T08:55:54;101611.22;;;15.29;61.51
17362;BME280;8798;51.938;4.348;2023-05-01T08:58:24;101616.63;;;15.29;61.89
17362;BME280;8798;51.938;4.348;2023-05-01T09:00:52;101605.28;;;15.25;61.82
17362;BME280;8798;51.938;4.348;2023-05-01T09:03:22;101589.56;;;15.21;61.79
17362;BME280;8798;51.938;4.348;2023-05-01T09:05:52;101579.03;;;15.18;61.92
17362;BME280;8798;51.938;4.348;2023-05-01T09:08:20;101550.94;;;15.11;62.09
17362;BME280;8798;51.938;4.348;2023-05-01T09:10:48;101506.22;;;14.98;62.05
17362;BME280;8798;51.938;4.348;2023-05-01T09:13:19;101450.91;;;14.84;62.02
17362;BME280;8798;51.938;4.348;2023-05-01T09:15:46;101473.06;;;14.88;62.32
17362;BME280;8798;51.938;4.348;2023-05-01T09:18:14;101487.97;;;14.92;62.40
17362;BME280;8798;51.938;4.348;2023-05-01T09:20:42;101500.31;;;14.95;62.25
17362;BME280;8798;51.938;4.348;2023-05-01T09:23:10;101487.47;;;14.89;62.43
17362;BME280;8798;51.938;4.348;2023-05-01T09:25:38;101442.59;;;14.78;62.42
17362;BME280;8798;51.938;4.348;2023-05-01T09:28:06;101397.78;;;14.67;62.61
17362;BME280;8798;51.938;4.348;2023-05-01T09:30:37;101376.81;;;14.61;62.68
17362;BME280;8798;51.938;4.348;2023-05-01T09:33:09;101385.78;;;14.61;62.80
17362;BME280;8798;51.938;4.348;2023-05-01T09:35:48;101428.22;;;14.69;62.85
17362;BME280;8798;51.938;4.348;2023-05-01T09:38:17;101465.97;;;14.79;63.02
17362;BME280;8798;51.938;4.348;2023-05-01T09:40:45;101486.09;;;14.84;63.31
17362;BME280;8798;51.938;4.348;2023-05-01T09:43:21;101505.88;;;14.85;63.51
17362;BME280;8798;51.938;4.348;2023-05-01T09:46:00;101496.22;;;14.82;63.46
17362;BME280;8798;51.938;4.348;2023-05-01T09:48:29;101478.59;;;14.78;63.55
17362;BME280;8798;51.938;4.348;2023-05-01T09:51:01;101487.59;;;14.79;63.79
17362;BME280;8798;51.938;4.348;2023-05-01T09:53:46;101485.88;;;14.78;64.04
17362;BME280;8798;51.938;4.348;2023-05-01T09:56:13;101489.63;;;14.77;63.87
17362;BME280;8798;51.938;4.348;2023-05-01T09:58:41;101481.66;;;14.75;64.25
17362;BME280;8798;51.938;4.348;2023-05-01T10:01:11;101511.75;;;14.80;64.23
17362;BME280;8798;51.938;4.348;2023-05-01T10:03:39;101526.66;;;14.84;64.43
17362;BME280;8798;51.938;4.348;2023-05-01T10:06:09;101579.63;;;14.95;64.59
17362;BME280;8798;51.938;4.348;2023-05-01T10:08:44;101587.41;;;14.98;64.74
17362;BME280;8798;51.938;4.348;2023-05-01T10:11:12;101556.63;;;14.91;65.03
17362;BME280;8798;51.938;4.348;2023-05-01T10:13:40;101532.22;;;14.83;64.92
17362;BME280;8798;51.938;4.348;2023-05-01T10:16:28;101542.06;;;14.84;65.02
17362;BME280;8798;51.938;4.348;2023-05-01T10:18:57;101566.75;;;14.89;65.19
17362;BME280;8798;51.938;4.348;2023-05-01T10:21:30;101596.56;;;14.97;65.20
17362;BME280;8798;51.938;4.348;2023-05-01T10:23:59;101638.03;;;15.06;65.62
17362;BME280;8798;51.938;4.348;2023-05-01T10:26:28;101689.16;;;15.17;65.53
17362;BME280;8798;51.938;4.348;2023-05-01T10:28:56;101747.09;;;15.33;65.66
17362;BME280;8798;51.938;4.348;2023-05-01T10:31:26;101770.66;;;15.40;65.66
17362;BME280;8798;51.938;4.348;2023-05-01T10:33:55;101810.50;;;15.48;65.73
17362;BME280;8798;51.938;4.348;2023-05-01T10:36:25;101831.50;;;15.54;65.96
17362;BME280;8798;51.938;4.348;2023-05-01T10:38:54;101853.41;;;15.61;66.00
17362;BME280;8798;51.938;4.348;2023-05-01T10:42:00;101892.09;;;15.71;66.14
17362;BME280;8798;51.938;4.348;2023-05-01T10:44:29;101935.03;;;15.84;66.22
17362;BME280;8798;51.938;4.348;2023-05-01T10:46:58;102000.47;;;15.97;66.46
17362;BME280;8798;51.938;4.348;2023-05-01T10:53:15;102055.66;;;16.14;66.17
17362;BME280;8798;51.938;4.348;2023-05-01T10:55:44;102119.84;;;16.31;66.44
17362;BME280;8798;51.938;4.348;2023-05-01T10:58:13;102127.38;;;16.38;66.22
17362;BME280;8798;51.938;4.348;2023-05-01T11:00:41;102165.41;;;16.46;66.04
17362;BME280;8798;51.938;4.348;2023-05-01T11:03:35;102187.16;;;16.54;66.02
17362;BME280;8798;51.938;4.348;2023-05-01T11:06:06;102178.03;;;16.55;66.24
17362;BME280;8798;51.938;4.348;2023-05-01T11:08:35;102166.47;;;16.53;66.21
17362;BME280;8798;51.938;4.348;2023-05-01T11:14:08;102223.25;;;16.72;66.09
17362;BME280;8798;51.938;4.348;2023-05-01T11:16:40;102246.94;;;16.80;65.88
17362;BME280;8798;51.938;4.348;2023-05-01T11:21:59;102362.03;;;17.13;66.09
17362;BME280;8798;51.938;4.348;2023-05-01T11:24:30;102419.94;;;17.32;65.95
17362;BME280;8798;51.938;4.348;2023-05-01T11:26:58;102442.56;;;17.40;65.61
17362;BME280;8798;51.938;4.348;2023-05-01T11:29:32;102445.84;;;17.44;65.78
17362;BME280;8798;51.938;4.348;2023-05-01T11:32:02;102460.50;;;17.51;65.68
17362;BME280;8798;51.938;4.348;2023-05-01T11:34:35;102519.41;;;17.69;65.81
17362;BME280;8798;51.938;4.348;2023-05-01T11:37:04;102528.81;;;17.74;65.53
17362;BME280;8798;51.938;4.348;2023-05-01T11:39:32;102530.06;;;17.80;65.34
17362;BME280;8798;51.938;4.348;2023-05-01T11:42:06;102532.50;;;17.83;65.21
17362;BME280;8798;51.938;4.348;2023-05-01T11:44:34;102557.72;;;17.93;65.41
17362;BME280;8798;51.938;4.348;2023-05-01T11:47:02;102566.94;;;18.00;65.06
17362;BME280;8798;51.938;4.348;2023-05-01T11:49:32;102588.75;;;18.09;64.87
17362;BME280;8798;51.938;4.348;2023-05-01T11:52:02;102604.28;;;18.16;64.92
17362;BME280;8798;51.938;4.348;2023-05-01T11:54:30;102600.25;;;18.20;64.98
17362;BME280;8798;51.938;4.348;2023-05-01T11:56:59;102626.47;;;18.30;64.83
17362;BME280;8798;51.938;4.348;2023-05-01T11:59:27;102685.47;;;18.47;64.66
17362;BME280;8798;51.938;4.348;2023-05-01T12:01:56;102764.78;;;18.70;64.30
17362;BME280;8798;51.938;4.348;2023-05-01T12:04:25;102785.34;;;18.82;64.19
17362;BME280;8798;51.938;4.348;2023-05-01T12:06:57;102776.13;;;18.83;64.14
17362;BME280;8798;51.938;4.348;2023-05-01T12:09:27;102740.03;;;18.81;64.00
17362;BME280;8798;51.938;4.348;2023-05-01T12:11:56;102707.69;;;18.78;63.70
17362;BME280;8798;51.938;4.348;2023-05-01T12:14:25;102678.91;;;18.76;63.77
17362;BME280;8798;51.938;4.348;2023-05-01T12:16:53;102652.81;;;18.73;63.64
17362;BME280;8798;51.938;4.348;2023-05-01T12:19:21;102619.44;;;18.71;63.27
17362;BME280;8798;51.938;4.348;2023-05-01T12:22:04;102673.00;;;18.88;63.10
17362;BME280;8798;51.938;4.348;2023-05-01T12:24:33;102693.00;;;18.97;63.15
17362;BME280;8798;51.938;4.348;2023-05-01T12:27:01;102694.34;;;19.01;63.07
17362;BME280;8798;51.938;4.348;2023-05-01T12:29:38;102643.41;;;18.94;62.77
17362;BME280;8798;51.938;4.348;2023-05-01T12:32:07;102623.34;;;18.95;62.90
17362;BME280;8798;51.938;4.348;2023-05-01T12:34:35;102702.78;;;19.16;62.78
17362;BME280;8798;51.938;4.348;2023-05-01T12:37:05;102735.22;;;19.27;62.55
17362;BME280;8798;51.938;4.348;2023-05-01T12:39:37;102748.03;;;19.35;62.34
17362;BME280;8798;51.938;4.348;2023-05-01T12:42:12;102744.13;;;19.38;62.40
17362;BME280;8798;51.938;4.348;2023-05-01T12:44:41;102733.56;;;19.43;62.05
17362;BME280;8798;51.938;4.348;2023-05-01T12:47:11;102654.31;;;19.28;61.91
17362;BME280;8798;51.938;4.348;2023-05-01T12:49:38;102614.78;;;19.24;61.73
17362;BME280;8798;51.938;4.348;2023-05-01T12:52:07;102657.03;;;19.36;61.89
17362;BME280;8798;51.938;4.348;2023-05-01T12:54:38;102628.94;;;19.36;61.34
17362;BME280;8798;51.938;4.348;2023-05-01T12:57:08;102598.59;;;19.30;61.29
17362;BME280;8798;51.938;4.348;2023-05-01T12:59:37;102568.81;;;19.29;61.03
17362;BME280;8798;51.938;4.348;2023-05-01T13:02:07;102491.44;;;19.13;60.77
17362;BME280;8798;51.938;4.348;2023-05-01T13:04:36;102416.69;;;19.00;60.58
17362;BME280;8798;51.938;4.348;2023-05-01T13:07:10;102370.03;;;18.95;60.38
17362;BME280;8798;51.938;4.348;2023-05-01T13:09:50;102415.00;;;19.07;60.52
17362;BME280;8798;51.938;4.348;2023-05-01T13:12:18;102410.25;;;19.09;60.16
17362;BME280;8798;51.938;4.348;2023-05-01T13:14:46;102429.66;;;19.14;60.39
17362;BME280;8798;51.938;4.348;2023-05-01T13:17:21;102420.09;;;19.18;60.01
17362;BME280;8798;51.938;4.348;2023-05-01T13:19:54;102403.06;;;19.16;60.11
17362;BME280;8798;51.938;4.348;2023-05-01T13:22:29;102394.88;;;19.16;59.77
17362;BME280;8798;51.938;4.348;2023-05-01T13:25:00;102406.81;;;19.23;59.84